sensor_id;sensor_type;location;lat;lon;timestamp;pressure;altitude;pressure_sealevel;temperature;humidity
64336;BME280;50672;53.362;-6.240;2022-12-18T00:01:05;101532.53;;;1.26;92.60
64336;BME280;50672;53.362;-6.240;2022-12-18T00:03:33;101537.31;;;1.35;92.66
64336;BME280;50672;53.362;-6.240;2022-12-18T00:06:00;101531.56;;;1.42;92.70
64336;BME280;50672;53.362;-6.240;2022-12-18T00:08:28;101528.88;;;1.42;92.90
64336;BME280;50672;53.362;-6.240;2022-12-18T00:10:54;101528.13;;;1.40;92.90
64336;BME280;50672;53.362;-6.240;2022-12-18T00:13:27;101529.84;;;1.41;93.01
64336;BME280;50672;53.362;-6.240;2022-12-18T00:15:53;101530.72;;;1.41;93.05
64336;BME280;50672;53.362;-6.240;2022-12-18T00:18:22;101535.88;;;1.44;93.15
64336;BME280;50672;53.362;-6.240;2022-12-18T00:20:48;101529.94;;;1.53;93.27
64336;BME280;50672;53.362;-6.240;2022-12-18T00:23:15;101529.34;;;1.63;93.34
64336;BME280;50672;53.362;-6.240;2022-12-18T00:25:42;101536.69;;;1.74;93.27
64336;BME280;50672;53.362;-6.240;2022-12-18T00:28:09;101537.06;;;1.82;93.26
64336;BME280;50672;53.362;-6.240;2022-12-18T00:30:35;101534.66;;;1.92;93.45
64336;BME280;50672;53.362;-6.240;2022-12-18T00:33:02;101545.75;;;2.00;93.56
64336;BME280;50672;53.362;-6.240;2022-12-18T00:35:29;101546.22;;;2.07;93.57
64336;BME280;50672;53.362;-6.240;2022-12-18T00:37:56;101534.09;;;2.14;93.59
64336;BME280;50672;53.362;-6.240;2022-12-18T00:40:22;101531.00;;;2.20;93.67
64336;BME280;50672;53.362;-6.240;2022-12-18T00:42:49;101523.19;;;2.30;93.67
64336;BME280;50672;53.362;-6.240;2022-12-18T00:45:29;101536.97;;;2.38;93.70
64336;BME280;50672;53.362;-6.240;2022-12-18T00:47:57;101532.06;;;2.45;93.78
64336;BME280;50672;53.362;-6.240;2022-12-18T00:50:24;101531.63;;;2.51;93.72
64336;BME280;50672;53.362;-6.240;2022-12-18T00:52:51;101528.53;;;2.57;93.82
64336;BME280;50672;53.362;-6.240;2022-12-18T00:55:18;101516.63;;;2.61;93.93
64336;BME280;50672;53.362;-6.240;2022-12-18T00:57:45;101509.97;;;2.67;93.80
64336;BME280;50672;53.362;-6.240;2022-12-18T01:00:14;101505.09;;;2.72;93.88
64336;BME280;50672;53.362;-6.240;2022-12-18T01:02:41;101511.88;;;2.78;94.02
64336;BME280;50672;53.362;-6.240;2022-12-18T01:05:10;101501.06;;;2.79;93.90
64336;BME280;50672;53.362;-6.240;2022-12-18T01:07:38;101496.75;;;2.77;93.92
64336;BME280;50672;53.362;-6.240;2022-12-18T01:10:06;101499.66;;;2.73;94.09
64336;BME280;50672;53.362;-6.240;2022-12-18T01:12:33;101495.22;;;2.72;94.01
64336;BME280;50672;53.362;-6.240;2022-12-18T01:14:59;101494.28;;;2.73;94.05
64336;BME280;50672;53.362;-6.240;2022-12-18T01:17:28;101501.13;;;2.78;94.05
64336;BME280;50672;53.362;-6.240;2022-12-18T01:19:54;101490.91;;;2.83;94.12
64336;BME280;50672;53.362;-6.240;2022-12-18T01:22:21;101490.41;;;2.90;94.15
64336;BME280;50672;53.362;-6.240;2022-12-18T01:24:48;101482.84;;;2.96;94.05
64336;BME280;50672;53.362;-6.240;2022-12-18T01:27:15;101479.09;;;2.98;94.12
64336;BME280;50672;53.362;-6.240;2022-12-18T01:29:42;101473.50;;;3.01;94.12
64336;BME280;50672;53.362;-6.240;2022-12-18T01:32:09;101474.25;;;3.03;94.19
64336;BME280;50672;53.362;-6.240;2022-12-18T01:34:36;101475.75;;;3.07;94.18
64336;BME280;50672;53.362;-6.240;2022-12-18T01:37:04;101466.50;;;3.12;94.26
64336;BME280;50672;53.362;-6.240;2022-12-18T01:39:32;101461.84;;;3.14;94.30
64336;BME280;50672;53.362;-6.240;2022-12-18T01:41:59;101456.28;;;3.17;94.20
64336;BME280;50672;53.362;-6.240;2022-12-18T01:47:36;101437.16;;;3.08;94.29
64336;BME280;50672;53.362;-6.240;2022-12-18T01:50:11;101422.31;;;3.03;94.17
64336;BME280;50672;53.362;-6.240;2022-12-18T01:52:45;101413.81;;;2.96;94.21
64336;BME280;50672;53.362;-6.240;2022-12-18T01:55:15;101408.00;;;2.89;94.17
64336;BME280;50672;53.362;-6.240;2022-12-18T01:57:43;101409.06;;;2.87;94.19
64336;BME280;50672;53.362;-6.240;2022-12-18T02:00:16;101416.19;;;2.88;94.23
64336;BME280;50672;53.362;-6.240;2022-12-18T02:02:44;101398.97;;;2.90;94.21
64336;BME280;50672;53.362;-6.240;2022-12-18T02:05:18;101387.22;;;2.91;94.20
64336;BME280;50672;53.362;-6.240;2022-12-18T02:11:15;101365.53;;;2.95;94.45
64336;BME280;50672;53.362;-6.240;2022-12-18T02:16:32;101369.47;;;3.02;94.34
64336;BME280;50672;53.362;-6.240;2022-12-18T02:19:15;101380.00;;;3.05;94.39
64336;BME280;50672;53.362;-6.240;2022-12-18T02:21:54;101382.59;;;3.06;94.38
64336;BME280;50672;53.362;-6.240;2022-12-18T02:24:37;101386.66;;;3.12;94.47
64336;BME280;50672;53.362;-6.240;2022-12-18T02:27:09;101389.88;;;3.17;94.30
64336;BME280;50672;53.362;-6.240;2022-12-18T02:29:41;101386.97;;;3.20;94.18
64336;BME280;50672;53.362;-6.240;2022-12-18T02:32:14;101380.28;;;3.26;94.15
64336;BME280;50672;53.362;-6.240;2022-12-18T02:34:43;101374.34;;;3.34;94.15
64336;BME280;50672;53.362;-6.240;2022-12-18T02:37:30;101365.06;;;3.38;93.93
64336;BME280;50672;53.362;-6.240;2022-12-18T02:40:57;101362.66;;;3.46;93.88
64336;BME280;50672;53.362;-6.240;2022-12-18T02:44:42;101353.16;;;3.53;93.72
64336;BME280;50672;53.362;-6.240;2022-12-18T02:48:07;101362.25;;;3.64;93.67
64336;BME280;50672;53.362;-6.240;2022-12-18T03:01:15;101339.84;;;3.99;93.50
64336;BME280;50672;53.362;-6.240;2022-12-18T03:04:22;101325.81;;;4.06;93.58
64336;BME280;50672;53.362;-6.240;2022-12-18T03:08:38;101312.34;;;4.18;93.40
64336;BME280;50672;53.362;-6.240;2022-12-18T03:11:25;101307.09;;;4.27;93.43
64336;BME280;50672;53.362;-6.240;2022-12-18T03:14:15;101282.59;;;4.31;93.29
64336;BME280;50672;53.362;-6.240;2022-12-18T03:16:44;101294.22;;;4.31;93.12
64336;BME280;50672;53.362;-6.240;2022-12-18T03:19:15;101268.88;;;4.34;93.05
64336;BME280;50672;53.362;-6.240;2022-12-18T03:21:46;101261.66;;;4.34;92.88
64336;BME280;50672;53.362;-6.240;2022-12-18T03:24:15;101255.41;;;4.34;92.76
64336;BME280;50672;53.362;-6.240;2022-12-18T03:26:45;101243.66;;;4.35;92.63
64336;BME280;50672;53.362;-6.240;2022-12-18T03:29:17;101223.94;;;4.34;92.57
64336;BME280;50672;53.362;-6.240;2022-12-18T03:31:49;101209.47;;;4.35;92.24
64336;BME280;50672;53.362;-6.240;2022-12-18T03:34:23;101218.03;;;4.40;92.31
64336;BME280;50672;53.362;-6.240;2022-12-18T03:36:51;101223.19;;;4.43;92.02
64336;BME280;50672;53.362;-6.240;2022-12-18T03:39:19;101214.25;;;4.43;91.80
64336;BME280;50672;53.362;-6.240;2022-12-18T03:42:01;101205.91;;;4.46;91.54
64336;BME280;50672;53.362;-6.240;2022-12-18T03:44:38;101227.34;;;4.48;91.26
64336;BME280;50672;53.362;-6.240;2022-12-18T03:47:16;101226.63;;;4.45;90.99
64336;BME280;50672;53.362;-6.240;2022-12-18T03:52:41;101214.13;;;4.44;90.52
64336;BME280;50672;53.362;-6.240;2022-12-18T03:55:12;101232.97;;;4.44;90.42
64336;BME280;50672;53.362;-6.240;2022-12-18T03:57:39;101225.66;;;4.47;90.23
64336;BME280;50672;53.362;-6.240;2022-12-18T04:00:11;101234.31;;;4.50;90.19
64336;BME280;50672;53.362;-6.240;2022-12-18T04:02:42;101215.06;;;4.55;89.96
64336;BME280;50672;53.362;-6.240;2022-12-18T04:05:12;101212.03;;;4.59;89.83
64336;BME280;50672;53.362;-6.240;2022-12-18T04:07:40;101203.81;;;4.61;89.79
64336;BME280;50672;53.362;-6.240;2022-12-18T04:10:08;101205.53;;;4.62;89.62
64336;BME280;50672;53.362;-6.240;2022-12-18T04:12:37;101199.13;;;4.63;89.60
64336;BME280;50672;53.362;-6.240;2022-12-18T04:15:05;101207.97;;;4.65;89.58
64336;BME280;50672;53.362;-6.240;2022-12-18T04:17:32;101201.59;;;4.66;89.51
64336;BME280;50672;53.362;-6.240;2022-12-18T04:19:58;101203.91;;;4.71;89.31
64336;BME280;50672;53.362;-6.240;2022-12-18T04:22:26;101203.78;;;4.72;89.23
64336;BME280;50672;53.362;-6.240;2022-12-18T04:24:53;101201.06;;;4.72;89.16
64336;BME280;50672;53.362;-6.240;2022-12-18T04:27:20;101187.47;;;4.74;89.22
64336;BME280;50672;53.362;-6.240;2022-12-18T04:29:47;101188.31;;;4.74;89.09
64336;BME280;50672;53.362;-6.240;2022-12-18T04:32:14;101189.91;;;4.77;89.11
64336;BME280;50672;53.362;-6.240;2022-12-18T04:34:41;101183.53;;;4.78;88.93
64336;BME280;50672;53.362;-6.240;2022-12-18T04:37:07;101169.19;;;4.77;89.04
64336;BME280;50672;53.362;-6.240;2022-12-18T04:39:34;101159.13;;;4.79;89.05
64336;BME280;50672;53.362;-6.240;2022-12-18T04:42:02;101152.88;;;4.79;89.10
64336;BME280;50672;53.362;-6.240;2022-12-18T04:44:29;101149.31;;;4.78;88.91
64336;BME280;50672;53.362;-6.240;2022-12-18T04:46:55;101150.06;;;4.81;88.89
64336;BME280;50672;53.362;-6.240;2022-12-18T04:49:22;101136.44;;;4.82;88.88
64336;BME280;50672;53.362;-6.240;2022-12-18T04:51:49;101141.72;;;4.84;88.82
64336;BME280;50672;53.362;-6.240;2022-12-18T04:54:16;101130.78;;;4.85;88.77
64336;BME280;50672;53.362;-6.240;2022-12-18T04:56:43;101127.72;;;4.90;89.04
64336;BME280;50672;53.362;-6.240;2022-12-18T04:59:09;101112.25;;;4.92;88.96
64336;BME280;50672;53.362;-6.240;2022-12-18T05:01:36;101116.53;;;4.94;88.98
64336;BME280;50672;53.362;-6.240;2022-12-18T05:04:03;101109.03;;;4.98;88.92
64336;BME280;50672;53.362;-6.240;2022-12-18T05:06:30;101107.91;;;5.01;88.91
64336;BME280;50672;53.362;-6.240;2022-12-18T05:08:57;101097.84;;;5.03;88.89
64336;BME280;50672;53.362;-6.240;2022-12-18T05:11:24;101093.31;;;5.03;89.09
64336;BME280;50672;53.362;-6.240;2022-12-18T05:13:51;101089.63;;;5.04;89.08
64336;BME280;50672;53.362;-6.240;2022-12-18T05:16:18;101088.66;;;5.05;88.96
64336;BME280;50672;53.362;-6.240;2022-12-18T05:18:44;101071.59;;;5.05;88.92
64336;BME280;50672;53.362;-6.240;2022-12-18T05:21:11;101067.91;;;5.06;88.92
64336;BME280;50672;53.362;-6.240;2022-12-18T05:23:38;101050.88;;;5.05;88.90
64336;BME280;50672;53.362;-6.240;2022-12-18T05:26:06;101035.53;;;5.06;88.93
64336;BME280;50672;53.362;-6.240;2022-12-18T05:28:35;101022.66;;;5.09;89.12
64336;BME280;50672;53.362;-6.240;2022-12-18T05:31:03;101019.94;;;5.09;89.04
64336;BME280;50672;53.362;-6.240;2022-12-18T05:33:33;101019.94;;;5.09;88.84
64336;BME280;50672;53.362;-6.240;2022-12-18T05:36:01;101011.97;;;5.08;88.88
64336;BME280;50672;53.362;-6.240;2022-12-18T05:38:29;100993.22;;;5.06;88.99
64336;BME280;50672;53.362;-6.240;2022-12-18T05:40:56;101015.06;;;5.03;88.99
64336;BME280;50672;53.362;-6.240;2022-12-18T05:43:24;100993.47;;;5.03;88.93
64336;BME280;50672;53.362;-6.240;2022-12-18T05:45:52;100991.66;;;5.04;88.96
64336;BME280;50672;53.362;-6.240;2022-12-18T05:48:20;100997.06;;;5.04;88.92
64336;BME280;50672;53.362;-6.240;2022-12-18T05:50:48;100996.03;;;5.05;89.14
64336;BME280;50672;53.362;-6.240;2022-12-18T05:53:18;100984.41;;;5.04;88.98
64336;BME280;50672;53.362;-6.240;2022-12-18T05:55:46;100989.81;;;5.04;88.90
64336;BME280;50672;53.362;-6.240;2022-12-18T05:58:13;100996.19;;;5.03;88.88
64336;BME280;50672;53.362;-6.240;2022-12-18T06:00:45;100997.63;;;5.07;88.73
64336;BME280;50672;53.362;-6.240;2022-12-18T06:03:13;100995.66;;;5.09;88.83
64336;BME280;50672;53.362;-6.240;2022-12-18T06:05:43;100994.66;;;5.10;88.68
64336;BME280;50672;53.362;-6.240;2022-12-18T06:08:11;101003.75;;;5.09;88.77
64336;BME280;50672;53.362;-6.240;2022-12-18T06:10:38;101000.19;;;5.09;88.94
64336;BME280;50672;53.362;-6.240;2022-12-18T06:13:05;100989.25;;;5.10;88.83
64336;BME280;50672;53.362;-6.240;2022-12-18T06:15:32;100982.03;;;5.11;88.56
64336;BME280;50672;53.362;-6.240;2022-12-18T06:18:00;100969.38;;;5.11;88.69
64336;BME280;50672;53.362;-6.240;2022-12-18T06:20:29;100970.13;;;5.13;88.72
64336;BME280;50672;53.362;-6.240;2022-12-18T06:22:59;100963.84;;;5.13;88.29
64336;BME280;50672;53.362;-6.240;2022-12-18T06:25:26;100961.00;;;5.14;88.36
64336;BME280;50672;53.362;-6.240;2022-12-18T06:27:53;100961.00;;;5.14;88.42
64336;BME280;50672;53.362;-6.240;2022-12-18T06:30:20;100948.41;;;5.15;88.39
64336;BME280;50672;53.362;-6.240;2022-12-18T06:32:48;100943.13;;;5.13;88.38
64336;BME280;50672;53.362;-6.240;2022-12-18T06:35:20;100933.31;;;5.12;88.28
64336;BME280;50672;53.362;-6.240;2022-12-18T06:37:47;100935.28;;;5.10;88.24
64336;BME280;50672;53.362;-6.240;2022-12-18T06:40:14;100925.63;;;5.08;88.03
64336;BME280;50672;53.362;-6.240;2022-12-18T06:42:41;100923.06;;;5.06;88.13
64336;BME280;50672;53.362;-6.240;2022-12-18T06:45:08;100907.16;;;5.03;87.73
64336;BME280;50672;53.362;-6.240;2022-12-18T06:47:34;100902.03;;;5.00;87.53
64336;BME280;50672;53.362;-6.240;2022-12-18T06:50:01;100879.72;;;4.98;87.48
64336;BME280;50672;53.362;-6.240;2022-12-18T06:52:28;100894.34;;;4.95;87.19
64336;BME280;50672;53.362;-6.240;2022-12-18T06:54:55;100886.41;;;4.94;87.14
64336;BME280;50672;53.362;-6.240;2022-12-18T06:57:22;100892.03;;;4.91;86.91
64336;BME280;50672;53.362;-6.240;2022-12-18T06:59:48;100872.59;;;4.87;86.85
64336;BME280;50672;53.362;-6.240;2022-12-18T07:02:15;100875.53;;;4.84;86.66
64336;BME280;50672;53.362;-6.240;2022-12-18T07:04:43;100863.59;;;4.77;86.29
64336;BME280;50672;53.362;-6.240;2022-12-18T07:07:09;100871.53;;;4.78;86.28
64336;BME280;50672;53.362;-6.240;2022-12-18T07:09:36;100873.81;;;4.73;86.24
64336;BME280;50672;53.362;-6.240;2022-12-18T07:12:03;100864.84;;;4.73;85.97
64336;BME280;50672;53.362;-6.240;2022-12-18T07:14:33;100859.59;;;4.71;85.95
64336;BME280;50672;53.362;-6.240;2022-12-18T07:17:00;100865.13;;;4.70;85.78
64336;BME280;50672;53.362;-6.240;2022-12-18T07:19:29;100857.91;;;4.70;85.48
64336;BME280;50672;53.362;-6.240;2022-12-18T07:21:56;100856.19;;;4.69;85.36
64336;BME280;50672;53.362;-6.240;2022-12-18T07:24:23;100845.28;;;4.71;85.20
64336;BME280;50672;53.362;-6.240;2022-12-18T07:26:50;100827.09;;;4.73;85.23
64336;BME280;50672;53.362;-6.240;2022-12-18T07:29:16;100820.88;;;4.72;85.10
64336;BME280;50672;53.362;-6.240;2022-12-18T07:31:43;100809.09;;;4.73;84.71
64336;BME280;50672;53.362;-6.240;2022-12-18T07:34:12;100794.75;;;4.73;84.86
64336;BME280;50672;53.362;-6.240;2022-12-18T07:36:39;100782.84;;;4.75;84.59
64336;BME280;50672;53.362;-6.240;2022-12-18T07:39:06;100795.06;;;4.79;84.33
64336;BME280;50672;53.362;-6.240;2022-12-18T07:41:32;100781.03;;;4.86;84.31
64336;BME280;50672;53.362;-6.240;2022-12-18T07:43:59;100770.94;;;4.88;83.92
64336;BME280;50672;53.362;-6.240;2022-12-18T07:46:26;100752.91;;;4.88;83.89
64336;BME280;50672;53.362;-6.240;2022-12-18T07:48:53;100740.00;;;4.92;83.87
64336;BME280;50672;53.362;-6.240;2022-12-18T07:51:22;100739.03;;;4.93;83.81
64336;BME280;50672;53.362;-6.240;2022-12-18T07:53:48;100722.56;;;4.96;83.71
64336;BME280;50672;53.362;-6.240;2022-12-18T07:56:18;100723.25;;;4.98;83.45
64336;BME280;50672;53.362;-6.240;2022-12-18T07:58:56;100715.06;;;5.00;83.39
64336;BME280;50672;53.362;-6.240;2022-12-18T08:01:23;100709.53;;;5.01;83.24
64336;BME280;50672;53.362;-6.240;2022-12-18T08:03:50;100704.28;;;5.00;83.30
64336;BME280;50672;53.362;-6.240;2022-12-18T08:06:18;100682.53;;;5.01;83.38
64336;BME280;50672;53.362;-6.240;2022-12-18T08:08:48;100690.50;;;5.03;83.63
64336;BME280;50672;53.362;-6.240;2022-12-18T08:11:15;100706.69;;;5.03;83.48
64336;BME280;50672;53.362;-6.240;2022-12-18T08:13:42;100681.66;;;5.01;83.72
64336;BME280;50672;53.362;-6.240;2022-12-18T08:16:09;100687.94;;;5.01;83.61
64336;BME280;50672;53.362;-6.240;2022-12-18T08:18:37;100677.16;;;5.01;83.59
64336;BME280;50672;53.362;-6.240;2022-12-18T08:21:14;100651.00;;;5.02;83.80
64336;BME280;50672;53.362;-6.240;2022-12-18T08:23:42;100646.47;;;5.02;83.94
64336;BME280;50672;53.362;-6.240;2022-12-18T08:26:10;100656.41;;;5.02;83.92
64336;BME280;50672;53.362;-6.240;2022-12-18T08:28:37;100654.84;;;4.99;84.06
64336;BME280;50672;53.362;-6.240;2022-12-18T08:31:04;100646.06;;;4.97;84.37
64336;BME280;50672;53.362;-6.240;2022-12-18T08:33:32;100652.44;;;4.96;84.36
64336;BME280;50672;53.362;-6.240;2022-12-18T08:35:59;100637.22;;;4.95;84.63
64336;BME280;50672;53.362;-6.240;2022-12-18T08:38:28;100619.22;;;4.95;84.63
64336;BME280;50672;53.362;-6.240;2022-12-18T08:41:02;100617.50;;;4.94;84.91
64336;BME280;50672;53.362;-6.240;2022-12-18T08:43:30;100604.03;;;4.94;85.16
64336;BME280;50672;53.362;-6.240;2022-12-18T08:46:16;100614.66;;;4.96;85.27
64336;BME280;50672;53.362;-6.240;2022-12-18T08:48:43;100598.47;;;4.96;85.60
64336;BME280;50672;53.362;-6.240;2022-12-18T08:51:10;100607.41;;;4.96;85.67
64336;BME280;50672;53.362;-6.240;2022-12-18T08:53:37;100599.47;;;4.95;85.91
64336;BME280;50672;53.362;-6.240;2022-12-18T08:56:05;100589.41;;;4.97;86.12
64336;BME280;50672;53.362;-6.240;2022-12-18T08:58:32;100591.97;;;4.99;86.36
64336;BME280;50672;53.362;-6.240;2022-12-18T09:01:03;100590.09;;;4.99;86.55
64336;BME280;50672;53.362;-6.240;2022-12-18T09:03:30;100596.22;;;5.01;86.73
64336;BME280;50672;53.362;-6.240;2022-12-18T09:05:57;100587.97;;;5.03;86.91
64336;BME280;50672;53.362;-6.240;2022-12-18T09:08:24;100586.13;;;5.03;87.18
64336;BME280;50672;53.362;-6.240;2022-12-18T09:10:51;100585.97;;;5.05;87.43
64336;BME280;50672;53.362;-6.240;2022-12-18T09:13:18;100588.53;;;5.06;87.62
64336;BME280;50672;53.362;-6.240;2022-12-18T09:15:52;100593.09;;;5.06;87.77
64336;BME280;50672;53.362;-6.240;2022-12-18T09:18:21;100584.00;;;5.07;88.09
64336;BME280;50672;53.362;-6.240;2022-12-18T09:20:49;100597.50;;;5.07;88.34
64336;BME280;50672;53.362;-6.240;2022-12-18T09:23:18;100587.53;;;5.07;88.39
64336;BME280;50672;53.362;-6.240;2022-12-18T09:25:45;100582.00;;;5.09;88.60
64336;BME280;50672;53.362;-6.240;2022-12-18T09:28:13;100551.34;;;5.10;88.86
64336;BME280;50672;53.362;-6.240;2022-12-18T09:30:42;100544.22;;;5.09;89.10
64336;BME280;50672;53.362;-6.240;2022-12-18T09:33:10;100536.13;;;5.09;89.26
64336;BME280;50672;53.362;-6.240;2022-12-18T09:35:38;100520.81;;;5.09;89.42
64336;BME280;50672;53.362;-6.240;2022-12-18T09:38:06;100503.63;;;5.10;89.72
64336;BME280;50672;53.362;-6.240;2022-12-18T09:40:36;100490.28;;;5.09;89.89
64336;BME280;50672;53.362;-6.240;2022-12-18T09:43:06;100485.44;;;5.12;90.05
64336;BME280;50672;53.362;-6.240;2022-12-18T09:45:43;100479.75;;;5.16;89.99
64336;BME280;50672;53.362;-6.240;2022-12-18T09:48:18;100485.84;;;5.18;90.18
64336;BME280;50672;53.362;-6.240;2022-12-18T09:50:48;100477.47;;;5.21;90.32
64336;BME280;50672;53.362;-6.240;2022-12-18T09:53:19;100484.44;;;5.23;90.38
64336;BME280;50672;53.362;-6.240;2022-12-18T09:55:48;100465.38;;;5.25;90.44
64336;BME280;50672;53.362;-6.240;2022-12-18T09:58:39;100458.97;;;5.26;90.58
64336;BME280;50672;53.362;-6.240;2022-12-18T10:01:21;100454.28;;;5.28;90.75
64336;BME280;50672;53.362;-6.240;2022-12-18T10:03:49;100449.72;;;5.28;90.74
64336;BME280;50672;53.362;-6.240;2022-12-18T10:06:42;100463.94;;;5.30;90.80
64336;BME280;50672;53.362;-6.240;2022-12-18T10:09:36;100461.41;;;5.29;90.97
64336;BME280;50672;53.362;-6.240;2022-12-18T10:12:20;100467.47;;;5.31;90.97
64336;BME280;50672;53.362;-6.240;2022-12-18T10:20:49;100442.19;;;5.32;91.42
64336;BME280;50672;53.362;-6.240;2022-12-18T10:26:06;100416.63;;;5.36;91.63
64336;BME280;50672;53.362;-6.240;2022-12-18T10:28:36;100411.91;;;5.38;91.72
64336;BME280;50672;53.362;-6.240;2022-12-18T10:31:19;100408.06;;;5.41;91.71
64336;BME280;50672;53.362;-6.240;2022-12-18T10:33:49;100414.16;;;5.43;91.87
64336;BME280;50672;53.362;-6.240;2022-12-18T10:36:16;100405.75;;;5.46;91.83
64336;BME280;50672;53.362;-6.240;2022-12-18T10:38:43;100400.06;;;5.49;91.91
64336;BME280;50672;53.362;-6.240;2022-12-18T10:46:36;100404.72;;;5.57;92.12
64336;BME280;50672;53.362;-6.240;2022-12-18T10:49:03;100420.59;;;5.60;92.39
64336;BME280;50672;53.362;-6.240;2022-12-18T10:51:36;100397.97;;;5.61;92.39
64336;BME280;50672;53.362;-6.240;2022-12-18T10:54:15;100397.69;;;5.64;92.45
64336;BME280;50672;53.362;-6.240;2022-12-18T10:56:43;100392.97;;;5.66;92.39
64336;BME280;50672;53.362;-6.240;2022-12-18T10:59:31;100381.19;;;5.67;92.46
64336;BME280;50672;53.362;-6.240;2022-12-18T11:02:58;100376.63;;;5.68;92.65
64336;BME280;50672;53.362;-6.240;2022-12-18T11:06:54;100379.16;;;5.69;92.68
64336;BME280;50672;53.362;-6.240;2022-12-18T11:10:01;100370.06;;;5.70;92.98
64336;BME280;50672;53.362;-6.240;2022-12-18T11:12:28;100360.13;;;5.71;92.98
64336;BME280;50672;53.362;-6.240;2022-12-18T11:14:55;100352.72;;;5.73;93.10
64336;BME280;50672;53.362;-6.240;2022-12-18T11:17:31;100354.28;;;5.75;93.18
64336;BME280;50672;53.362;-6.240;2022-12-18T11:20:05;100342.47;;;5.76;93.46
64336;BME280;50672;53.362;-6.240;2022-12-18T11:22:36;100324.25;;;5.78;93.32
64336;BME280;50672;53.362;-6.240;2022-12-18T11:25:17;100312.13;;;5.82;93.57
64336;BME280;50672;53.362;-6.240;2022-12-18T11:28:25;100303.88;;;5.84;93.41
64336;BME280;50672;53.362;-6.240;2022-12-18T11:31:27;100297.97;;;5.89;93.60
64336;BME280;50672;53.362;-6.240;2022-12-18T11:36:55;100284.53;;;5.97;93.75
64336;BME280;50672;53.362;-6.240;2022-12-18T11:39:40;100284.28;;;6.00;93.94
64336;BME280;50672;53.362;-6.240;2022-12-18T11:47:42;100251.38;;;6.05;94.34
64336;BME280;50672;53.362;-6.240;2022-12-18T11:50:24;100248.34;;;6.08;94.41
64336;BME280;50672;53.362;-6.240;2022-12-18T11:52:51;100244.50;;;6.10;94.09
64336;BME280;50672;53.362;-6.240;2022-12-18T11:55:40;100232.38;;;6.14;94.35
64336;BME280;50672;53.362;-6.240;2022-12-18T11:58:22;100220.38;;;6.17;94.53
64336;BME280;50672;53.362;-6.240;2022-12-18T12:09:30;100187.72;;;6.37;94.63
64336;BME280;50672;53.362;-6.240;2022-12-18T12:18:19;100177.44;;;6.48;94.97
64336;BME280;50672;53.362;-6.240;2022-12-18T12:21:28;100164.28;;;6.54;94.90
64336;BME280;50672;53.362;-6.240;2022-12-18T12:38:30;100123.28;;;6.75;95.26
64336;BME280;50672;53.362;-6.240;2022-12-18T12:41:12;100121.75;;;6.80;95.22
64336;BME280;50672;53.362;-6.240;2022-12-18T12:44:03;100098.44;;;6.88;95.36
64336;BME280;50672;53.362;-6.240;2022-12-18T12:46:32;100090.84;;;6.91;95.13
64336;BME280;50672;53.362;-6.240;2022-12-18T12:49:05;100066.50;;;6.99;95.15
64336;BME280;50672;53.362;-6.240;2022-12-18T12:51:39;100065.97;;;7.04;95.42
64336;BME280;50672;53.362;-6.240;2022-12-18T12:54:23;100057.84;;;7.12;95.26
64336;BME280;50672;53.362;-6.240;2022-12-18T12:56:58;100054.81;;;7.15;95.16
64336;BME280;50672;53.362;-6.240;2022-12-18T13:05:11;100035.00;;;7.31;95.37
64336;BME280;50672;53.362;-6.240;2022-12-18T13:07:50;100022.63;;;7.37;95.34
64336;BME280;50672;53.362;-6.240;2022-12-18T13:20:44;100005.84;;;7.50;95.32
64336;BME280;50672;53.362;-6.240;2022-12-18T13:31:01;99990.75;;;7.56;95.38
64336;BME280;50672;53.362;-6.240;2022-12-18T13:36:02;99973.16;;;7.60;95.20
64336;BME280;50672;53.362;-6.240;2022-12-18T13:38:37;99969.06;;;7.64;94.95
64336;BME280;50672;53.362;-6.240;2022-12-18T13:41:21;99952.63;;;7.65;95.01
64336;BME280;50672;53.362;-6.240;2022-12-18T13:43:50;99953.13;;;7.69;95.00
64336;BME280;50672;53.362;-6.240;2022-12-18T13:51:43;99933.81;;;7.72;95.01
64336;BME280;50672;53.362;-6.240;2022-12-18T13:54:22;99938.38;;;7.72;95.13
64336;BME280;50672;53.362;-6.240;2022-12-18T13:56:50;99939.22;;;7.72;95.04
64336;BME280;50672;53.362;-6.240;2022-12-18T13:59:25;99940.94;;;7.73;95.23
64336;BME280;50672;53.362;-6.240;2022-12-18T14:01:58;99935.50;;;7.73;95.08
64336;BME280;50672;53.362;-6.240;2022-12-18T14:04:34;99925.50;;;7.74;95.23
64336;BME280;50672;53.362;-6.240;2022-12-18T14:07:05;99911.78;;;7.75;95.11
64336;BME280;50672;53.362;-6.240;2022-12-18T14:09:44;99904.66;;;7.74;95.07
64336;BME280;50672;53.362;-6.240;2022-12-18T14:12:22;99901.78;;;7.76;95.00
64336;BME280;50672;53.362;-6.240;2022-12-18T14:15:23;99890.94;;;7.76;95.17
64336;BME280;50672;53.362;-6.240;2022-12-18T14:17:55;99875.56;;;7.76;95.01
64336;BME280;50672;53.362;-6.240;2022-12-18T14:20:31;99873.50;;;7.78;95.21
64336;BME280;50672;53.362;-6.240;2022-12-18T14:22:59;99877.06;;;7.79;95.22
64336;BME280;50672;53.362;-6.240;2022-12-18T14:25:30;99891.09;;;7.82;95.25
64336;BME280;50672;53.362;-6.240;2022-12-18T14:30:45;99878.03;;;7.86;95.37
64336;BME280;50672;53.362;-6.240;2022-12-18T14:33:23;99873.44;;;7.86;95.17
64336;BME280;50672;53.362;-6.240;2022-12-18T14:35:59;99866.66;;;7.91;95.56
64336;BME280;50672;53.362;-6.240;2022-12-18T14:38:34;99872.75;;;7.93;95.18
64336;BME280;50672;53.362;-6.240;2022-12-18T14:41:03;99865.25;;;7.95;95.50
64336;BME280;50672;53.362;-6.240;2022-12-18T14:43:35;99845.28;;;7.96;95.14
64336;BME280;50672;53.362;-6.240;2022-12-18T14:46:05;99838.84;;;7.97;95.34
64336;BME280;50672;53.362;-6.240;2022-12-18T14:48:40;99834.06;;;7.99;95.62
64336;BME280;50672;53.362;-6.240;2022-12-18T14:53:53;99827.63;;;8.00;95.62
64336;BME280;50672;53.362;-6.240;2022-12-18T14:56:29;99827.06;;;8.04;95.45
64336;BME280;50672;53.362;-6.240;2022-12-18T14:58:59;99808.94;;;8.05;95.52
64336;BME280;50672;53.362;-6.240;2022-12-18T15:02:18;99812.50;;;8.06;95.59
64336;BME280;50672;53.362;-6.240;2022-12-18T15:09:39;99792.41;;;8.15;95.72
64336;BME280;50672;53.362;-6.240;2022-12-18T15:12:27;99794.97;;;8.16;95.92
64336;BME280;50672;53.362;-6.240;2022-12-18T15:14:59;99793.09;;;8.17;96.10